Time;durP1;ratioP1;P1;durP2;ratioP2;P2;SDS_P1;SDS_P2;PMS_P1;PMS_P2;Temp;Humidity;BMP_temperature;BMP_pressure;BME280_temperature;BME280_humidity;BME280_pressure;Samples;Min_cycle;Max_cycle;Signal;HPM_P1;HPM_P2
2021/09/01 00:02:14;;;;;;;11.07;9.98;;;;;;;24.74;52.37;99381.59;5053256;28;20036;-74
2021/09/01 00:04:39;;;;;;;11.00;9.85;;;;;;;24.72;52.10;99386.47;5053229;28;20057;-74
2021/09/01 00:07:05;;;;;;;10.55;9.55;;;;;;;25.06;52.12;99446.06;5053191;28;20116;-74
2021/09/01 00:09:30;;;;;;;10.45;9.18;;;;;;;25.10;51.55;99436.34;5053217;28;20021;-73
2021/09/01 00:11:59;;;;;;;10.52;9.48;;;;;;;25.12;51.60;99436.06;5052919;28;20024;-74
2021/09/01 00:14:25;;;;;;;10.77;9.68;;;;;;;24.80;51.20;99383.19;5052822;28;20053;-73
2021/09/01 00:16:50;;;;;;;10.73;9.73;;;;;;;24.86;51.27;99394.78;5053175;28;20506;-73
2021/09/01 00:19:16;;;;;;;11.40;10.15;;;;;;;25.04;51.45;99432.03;5053032;28;20116;-74
2021/09/01 00:21:42;;;;;;;10.30;9.30;;;;;;;24.93;51.26;99420.41;5053111;28;20059;-74
2021/09/01 00:24:08;;;;;;;11.25;10.13;;;;;;;24.78;51.82;99416.97;5052925;28;20029;-74
2021/09/01 00:26:33;;;;;;;10.25;9.20;;;;;;;24.87;51.83;99426.13;5052858;28;20052;-74
2021/09/01 00:28:59;;;;;;;10.95;9.82;;;;;;;24.79;51.85;99419.38;5052920;28;20036;-75
2021/09/01 00:31:26;;;;;;;9.55;8.70;;;;;;;24.89;51.33;99440.97;5052850;28;20031;-74
2021/09/01 00:33:52;;;;;;;8.95;8.15;;;;;;;24.89;50.78;99432.06;5052798;28;20391;-74
2021/09/01 00:36:18;;;;;;;10.45;9.25;;;;;;;24.81;50.99;99429.91;5052916;28;20087;-74
2021/09/01 00:38:44;;;;;;;9.23;8.43;;;;;;;24.74;50.73;99432.09;5052837;28;20029;-74
2021/09/01 00:41:27;;;;;;;9.50;8.48;;;;;;;24.87;50.68;99442.31;5052659;28;20583;-74
2021/09/01 00:43:54;;;;;;;15.60;8.57;;;;;;;24.80;50.70;99431.81;5052723;28;20508;-74
2021/09/01 00:46:20;;;;;;;8.75;7.63;;;;;;;24.39;50.69;99383.25;5052644;28;20028;-74
2021/09/01 00:48:46;;;;;;;10.70;8.23;;;;;;;24.74;50.53;99438.28;5052536;28;20024;-74
2021/09/01 00:51:12;;;;;;;9.93;8.88;;;;;;;24.39;50.43;99377.06;5052475;28;20406;-74
2021/09/01 00:53:44;;;;;;;9.60;7.68;;;;;;;24.64;50.72;99422.94;5051149;28;20090;-74
2021/09/01 00:56:13;;;;;;;;;;;;;;;24.51;50.98;99426.16;5053069;28;20017;-74
2021/09/01 00:58:38;;;;;;;9.82;8.30;;;;;;;24.26;50.49;99375.69;5052251;28;19936;-74
2021/09/01 01:01:17;;;;;;;8.85;8.05;;;;;;;24.63;50.46;99420.50;5052265;28;20113;-74
2021/09/01 01:03:52;;;;;;;8.75;7.95;;;;;;;24.60;50.50;99431.84;5052051;28;20024;-73
2021/09/01 01:06:22;;;;;;;8.85;8.00;;;;;;;24.58;50.53;99442.09;5052079;28;20025;-73
2021/09/01 01:08:49;;;;;;;10.13;9.15;;;;;;;24.45;51.36;99437.22;5052166;28;20422;-74
2021/09/01 01:11:14;;;;;;;11.20;9.70;;;;;;;23.99;51.85;99405.66;5052071;28;20021;-74
2021/09/01 01:13:42;;;;;;;9.82;8.80;;;;;;;23.86;52.20;99398.09;5051736;28;20603;-73
2021/09/01 01:16:07;;;;;;;9.57;8.60;;;;;;;23.85;52.23;99401.88;5052111;28;20032;-74
2021/09/01 01:18:33;;;;;;;9.25;8.43;;;;;;;23.77;52.06;99389.69;5051939;28;20021;-74
2021/09/01 01:20:59;;;;;;;10.25;9.25;;;;;;;23.78;52.12;99409.38;5052029;28;20020;-74
2021/09/01 01:23:24;;;;;;;9.55;8.68;;;;;;;23.96;52.12;99441.25;5051386;28;20013;-74
2021/09/01 01:25:53;;;;;;;9.05;8.13;;;;;;;24.02;51.98;99433.97;5051778;28;20035;-73
2021/09/01 01:28:19;;;;;;;8.73;7.82;;;;;;;24.03;51.78;99436.41;5051824;28;20017;-74
2021/09/01 01:30:45;;;;;;;10.38;9.30;;;;;;;23.60;52.04;99397.22;5051840;28;20028;-73
2021/09/01 01:33:12;;;;;;;13.13;7.95;;;;;;;23.88;51.81;99439.09;5051565;28;20056;-74
2021/09/01 01:35:43;;;;;;;8.82;7.93;;;;;;;23.36;51.99;99363.72;5051793;28;20024;-74
2021/09/01 01:38:11;;;;;;;10.25;8.57;;;;;;;23.77;51.83;99443.63;5051747;28;20028;-74
2021/09/01 01:40:38;;;;;;;9.05;8.15;;;;;;;23.33;51.79;99380.41;5051631;28;20098;-74
2021/09/01 01:43:04;;;;;;;8.18;7.47;;;;;;;23.41;51.85;99385.28;5050353;28;20052;-74
2021/09/01 01:45:36;;;;;;;8.93;8.05;;;;;;;23.77;51.71;99432.03;5051536;28;20083;-74
2021/09/01 01:48:03;;;;;;;9.80;8.18;;;;;;;23.71;51.82;99443.88;5051460;28;20099;-74
2021/09/01 01:50:29;;;;;;;8.75;7.90;;;;;;;23.68;51.66;99441.72;5051467;28;20036;-74
2021/09/01 01:52:55;;;;;;;8.90;8.10;;;;;;;23.35;51.55;99380.97;5051271;28;20025;-74
2021/09/01 01:55:21;;;;;;;8.68;7.88;;;;;;;23.63;51.61;99420.13;5051399;28;20027;-74
2021/09/01 01:57:46;;;;;;;8.52;7.50;;;;;;;23.75;51.48;99436.88;5051391;28;20095;-74
2021/09/01 02:00:12;;;;;;;7.68;6.97;;;;;;;23.66;51.42;99425.81;5051257;28;20032;-74
2021/09/01 02:02:38;;;;;;;9.23;8.40;;;;;;;23.71;51.36;99427.69;5049884;28;20024;-73
2021/09/01 02:05:04;;;;;;;8.50;7.78;;;;;;;23.48;51.53;99395.81;5051357;28;20027;-73
2021/09/01 02:07:30;;;;;;;8.70;7.45;;;;;;;23.43;51.33;99380.44;5051119;28;20081;-75
2021/09/01 02:09:56;;;;;;;10.75;7.13;;;;;;;23.80;51.37;99428.00;5051038;28;20029;-75
2021/09/01 02:12:21;;;;;;;9.93;7.82;;;;;;;23.63;51.18;99401.28;5051029;28;20025;-74
2021/09/01 02:14:47;;;;;;;14.93;8.45;;;;;;;23.48;51.06;99391.25;5050791;28;20041;-74
2021/09/01 02:17:13;;;;;;;9.98;7.63;;;;;;;23.80;51.18;99434.22;5051143;28;20382;-73
2021/09/01 02:19:38;;;;;;;9.27;7.70;;;;;;;23.76;51.24;99433.91;5051211;28;20525;-74
2021/09/01 02:22:04;;;;;;;8.65;7.78;;;;;;;23.68;51.17;99430.94;5051454;28;20051;-75
2021/09/01 02:24:29;;;;;;;8.80;7.63;;;;;;;23.66;51.39;99435.78;5050997;28;20482;-73
2021/09/01 02:26:55;;;;;;;8.90;8.00;;;;;;;23.30;51.52;99389.03;5050983;28;20025;-74
2021/09/01 02:29:20;;;;;;;10.13;7.88;;;;;;;23.67;51.42;99440.09;5050761;28;20021;-74
2021/09/01 02:31:46;;;;;;;8.68;7.88;;;;;;;23.53;51.53;99426.28;5049606;28;20025;-73
2021/09/01 02:34:11;;;;;;;8.32;7.55;;;;;;;23.21;51.85;99404.91;5050853;28;20025;-74
2021/09/01 02:36:37;;;;;;;8.60;7.80;;;;;;;23.35;51.85;99445.63;5054360;28;20532;-74
2021/09/01 02:39:03;;;;;;;10.07;8.63;;;;;;;23.39;51.88;99450.22;5054914;28;20417;-75
2021/09/01 02:41:29;;;;;;;8.23;7.40;;;;;;;23.16;52.01;99415.66;5054813;28;20059;-75
2021/09/01 02:43:54;;;;;;;9.15;8.05;;;;;;;23.28;51.92;99448.56;5054787;28;20100;-74
2021/09/01 02:46:20;;;;;;;8.20;7.40;;;;;;;22.93;51.88;99398.03;5054775;28;20017;-75
2021/09/01 02:48:46;;;;;;;8.32;7.55;;;;;;;23.30;52.04;99462.59;5054547;28;20017;-75
2021/09/01 02:51:11;;;;;;;10.02;9.13;;;;;;;23.08;52.16;99432.31;5054793;28;20488;-74
2021/09/01 02:53:37;;;;;;;9.02;8.13;;;;;;;23.17;52.20;99451.47;5054600;28;20413;-74
2021/09/01 02:56:03;;;;;;;8.88;7.97;;;;;;;23.15;52.21;99440.97;5054669;28;20021;-74
2021/09/01 02:58:29;;;;;;;9.20;8.25;;;;;;;23.08;52.27;99430.44;5053296;28;20025;-74
2021/09/01 03:00:54;;;;;;;9.27;8.30;;;;;;;23.34;52.21;99470.94;5054615;28;20032;-76
2021/09/01 03:03:19;;;;;;;9.02;8.15;;;;;;;23.09;51.96;99434.75;5054327;28;20070;-74
2021/09/01 03:05:45;;;;;;;9.73;8.10;;;;;;;23.34;52.16;99470.94;5054588;28;20017;-75
2021/09/01 03:08:10;;;;;;;9.00;8.15;;;;;;;23.32;52.14;99479.28;5054535;28;20096;-74
2021/09/01 03:10:36;;;;;;;12.20;10.85;;;;;;;23.25;52.20;99476.03;5054246;28;20029;-75
2021/09/01 03:13:02;;;;;;;10.48;9.50;;;;;;;22.96;52.25;99435.19;5054041;28;20048;-75
2021/09/01 03:15:27;;;;;;;10.90;9.98;;;;;;;22.97;52.06;99442.19;5054353;28;20028;-74
2021/09/01 03:17:53;;;;;;;11.68;10.48;;;;;;;23.18;52.14;99486.22;5054303;28;20462;-74
2021/09/01 03:20:18;;;;;;;10.98;9.80;;;;;;;23.08;52.12;99470.84;5054259;28;20589;-74
2021/09/01 03:22:43;;;;;;;10.55;9.45;;;;;;;23.17;52.13;99476.53;5054284;28;20020;-75
2021/09/01 03:25:09;;;;;;;12.57;10.43;;;;;;;23.04;52.16;99458.97;5054196;28;20027;-75
2021/09/01 03:27:34;;;;;;;11.15;10.02;;;;;;;23.12;52.10;99484.59;5054115;28;20017;-74
2021/09/01 03:30:00;;;;;;;9.80;8.80;;;;;;;23.07;52.12;99463.00;5054187;28;20029;-74
2021/09/01 03:32:25;;;;;;;12.10;10.75;;;;;;;23.18;52.29;99480.03;5054055;28;20021;-75
2021/09/01 03:34:51;;;;;;;16.50;8.85;;;;;;;23.21;52.17;99485.72;5053992;28;20087;-75
2021/09/01 03:37:16;;;;;;;18.52;14.20;;;;;;;22.99;51.98;99458.91;5053975;28;20036;-74
2021/09/01 03:39:42;;;;;;;12.38;10.15;;;;;;;23.02;51.98;99474.53;5053987;28;20029;-73
2021/09/01 03:42:07;;;;;;;11.57;10.27;;;;;;;23.15;52.00;99505.63;5053923;28;20490;-74
2021/09/01 03:44:34;;;;;;;14.32;10.40;;;;;;;23.09;52.11;99512.84;5053784;28;20478;-74
2021/09/01 03:46:59;;;;;;;11.80;9.00;;;;;;;22.57;52.20;99436.53;5053255;28;20052;-73
2021/09/01 03:49:25;;;;;;;11.35;10.07;;;;;;;22.93;52.36;99510.28;5053868;28;20056;-75
2021/09/01 03:51:50;;;;;;;15.30;13.82;;;;;;;22.93;52.28;99518.38;5053875;28;20485;-75
2021/09/01 03:54:16;;;;;;;10.77;9.40;;;;;;;22.86;52.45;99515.91;5053466;28;20024;-74
2021/09/01 03:56:41;;;;;;;10.98;8.60;;;;;;;22.62;52.55;99491.22;5053396;28;20029;-74
2021/09/01 03:59:08;;;;;;;12.95;11.65;;;;;;;22.88;52.51;99516.47;5053471;28;20048;-73
2021/09/01 04:01:34;;;;;;;12.27;11.00;;;;;;;22.47;52.41;99458.81;5053299;28;20028;-75
2021/09/01 04:04:01;;;;;;;12.10;9.27;;;;;;;22.71;52.57;99488.84;5053107;28;20095;-75
2021/09/01 04:06:27;;;;;;;8.63;7.82;;;;;;;22.93;52.19;99519.19;5053076;28;20021;-76
2021/09/01 04:08:52;;;;;;;11.68;9.35;;;;;;;22.92;52.37;99517.56;5051926;28;20036;-75
2021/09/01 04:11:17;;;;;;;12.50;8.95;;;;;;;22.57;52.38;99472.34;5053171;28;20028;-74
2021/09/01 04:13:43;;;;;;;17.33;15.63;;;;;;;22.73;52.37;99500.97;5053279;28;20052;-76
2021/09/01 04:16:08;;;;;;;14.85;11.73;;;;;;;22.51;52.36;99471.50;5053323;28;20102;-77
2021/09/01 04:18:34;;;;;;;14.68;13.10;;;;;;;22.82;52.23;99523.69;5053269;28;20078;-76
2021/09/01 04:20:59;;;;;;;15.15;13.45;;;;;;;22.58;52.24;99486.59;5053106;28;20412;-76
2021/09/01 04:23:24;;;;;;;11.73;9.45;;;;;;;22.82;52.30;99528.25;5053006;28;20047;-75
2021/09/01 04:25:50;;;;;;;22.80;18.00;;;;;;;22.80;52.38;99531.22;5052848;28;20505;-76
2021/09/01 04:28:15;;;;;;;12.32;10.57;;;;;;;22.64;52.38;99512.50;5052842;28;20025;-75
2021/09/01 04:30:40;;;;;;;17.75;15.30;;;;;;;22.80;52.25;99549.25;5052971;28;20024;-75
2021/09/01 04:33:06;;;;;;;13.13;10.35;;;;;;;22.59;52.23;99524.03;5052795;28;20021;-74
2021/09/01 04:35:31;;;;;;;11.52;9.60;;;;;;;22.56;52.27;99515.66;5052921;28;20500;-75
2021/09/01 04:37:57;;;;;;;10.93;9.52;;;;;;;22.27;52.29;99491.72;5052842;28;20053;-75
2021/09/01 04:40:22;;;;;;;13.38;9.95;;;;;;;22.31;52.25;99492.84;5052737;28;20501;-74
2021/09/01 04:42:47;;;;;;;10.57;9.57;;;;;;;22.72;52.18;99544.31;5052642;28;20036;-74
2021/09/01 04:45:13;;;;;;;14.02;12.52;;;;;;;22.47;52.07;99505.38;5052836;28;20043;-75
2021/09/01 04:47:38;;;;;;;11.18;10.10;;;;;;;22.58;52.00;99517.03;5052704;28;20021;-75
2021/09/01 04:50:04;;;;;;;10.80;9.70;;;;;;;22.79;51.90;99550.28;5052537;28;20574;-74
2021/09/01 04:52:29;;;;;;;12.10;9.95;;;;;;;22.66;52.00;99532.69;5052473;28;20032;-74
2021/09/01 04:54:55;;;;;;;11.43;10.32;;;;;;;22.63;51.77;99527.81;5052360;28;20525;-74
2021/09/01 04:57:20;;;;;;;12.85;11.55;;;;;;;22.82;51.82;99552.50;5051696;28;20028;-75
2021/09/01 04:59:46;;;;;;;13.65;12.35;;;;;;;22.88;51.70;99556.03;5052112;28;20148;-75
2021/09/01 05:02:11;;;;;;;14.68;13.18;;;;;;;22.54;51.93;99491.69;5052186;28;20516;-75
2021/09/01 05:04:37;;;;;;;15.23;11.15;;;;;;;22.97;51.53;99552.59;5052215;28;20021;-75
2021/09/01 05:07:02;;;;;;;10.68;9.55;;;;;;;22.88;51.51;99529.91;5051976;28;20460;-74
2021/09/01 05:09:28;;;;;;;13.05;9.10;;;;;;;22.80;51.58;99522.31;5052107;28;20039;-75
2021/09/01 05:11:54;;;;;;;11.52;9.20;;;;;;;22.98;51.50;99548.84;5052015;28;20103;-75
2021/09/01 05:14:19;;;;;;;13.88;11.23;;;;;;;22.90;51.61;99522.41;5050461;28;20044;-75
2021/09/01 05:16:44;;;;;;;15.15;13.55;;;;;;;23.01;51.29;99539.44;5052263;28;20025;-75
2021/09/01 05:19:11;;;;;;;13.70;9.52;;;;;;;23.10;51.21;99538.72;5051864;28;20505;-75
2021/09/01 05:21:41;;;;;;;8.98;7.85;;;;;;;23.03;51.03;99527.31;5051774;28;20115;-75
2021/09/01 05:24:15;;;;;;;8.57;7.77;;;;;;;23.23;51.07;99555.50;5051853;28;20036;-76
2021/09/01 05:26:41;;;;;;;8.73;7.93;;;;;;;23.28;50.90;99544.75;5051807;28;21110;-75
2021/09/01 05:29:07;;;;;;;16.40;14.55;;;;;;;23.23;50.66;99537.44;5051716;28;20056;-74
2021/09/01 05:31:32;;;;;;;12.77;9.50;;;;;;;23.07;50.73;99506.09;5050459;28;20110;-75
2021/09/01 05:34:02;;;;;;;9.07;8.27;;;;;;;23.36;50.65;99541.56;5051473;28;20033;-75
2021/09/01 05:36:29;;;;;;;12.50;10.93;;;;;;;23.42;50.65;99562.06;5051304;28;20029;-75
2021/09/01 05:38:56;;;;;;;11.95;10.15;;;;;;;23.10;50.17;99492.13;5051678;28;20108;-74
2021/09/01 05:41:22;;;;;;;10.63;8.23;;;;;;;23.36;49.98;99526.19;5050240;28;20033;-75
2021/09/01 05:43:51;;;;;;;14.73;9.85;;;;;;;23.56;49.78;99552.47;5046381;28;20074;-74
2021/09/01 05:46:18;;;;;;;11.73;9.13;;;;;;;23.23;49.66;99499.72;5049937;28;20055;-74
2021/09/01 05:48:45;;;;;;;13.13;11.60;;;;;;;23.27;49.85;99500.00;5050446;28;20102;-75
2021/09/01 05:51:11;;;;;;;10.27;8.48;;;;;;;23.62;49.96;99540.63;5050411;28;20090;-75
2021/09/01 05:53:37;;;;;;;11.45;9.00;;;;;;;23.57;49.93;99531.72;5041197;28;20029;-75
2021/09/01 05:56:07;;;;;;;10.80;9.23;;;;;;;23.60;49.79;99544.66;5045394;28;20029;-75
2021/09/01 05:58:37;;;;;;;10.73;8.87;;;;;;;23.66;49.80;99536.31;5033529;28;20036;-75
2021/09/01 06:01:04;;;;;;;12.00;8.60;;;;;;;23.52;49.38;99499.31;5029904;28;20267;-76
2021/09/01 06:03:31;;;;;;;7.80;7.10;;;;;;;23.71;49.37;99533.66;5031290;28;20033;-75
2021/09/01 06:06:00;;;;;;;11.32;8.98;;;;;;;23.75;49.46;99532.03;5039125;28;20142;-75
2021/09/01 06:08:30;;;;;;;10.65;7.72;;;;;;;23.49;49.13;99486.38;5050008;28;20460;-75
2021/09/01 06:10:58;;;;;;;8.23;7.38;;;;;;;23.71;48.47;99511.28;5051193;28;20029;-75
2021/09/01 06:13:24;;;;;;;9.40;6.15;;;;;;;23.79;47.83;99542.34;5032908;28;20583;-75
2021/09/01 06:15:50;;;;;;;8.48;7.68;;;;;;;23.72;48.01;99523.69;5030004;28;20109;-75
2021/09/01 06:18:15;;;;;;;10.05;7.85;;;;;;;23.82;47.85;99533.72;5031240;28;20033;-75
2021/09/01 06:20:41;;;;;;;7.03;6.28;;;;;;;23.53;47.66;99495.53;5030959;28;20029;-75
2021/09/01 06:23:07;;;;;;;7.82;7.10;;;;;;;23.76;47.75;99517.50;5030957;28;20112;-74
2021/09/01 06:25:32;;;;;;;7.32;6.63;;;;;;;23.92;47.26;99545.34;5048347;28;20100;-75
2021/09/01 06:27:58;;;;;;;12.15;9.40;;;;;;;23.94;47.19;99543.19;5050699;28;20035;-75
2021/09/01 06:30:24;;;;;;;8.43;7.63;;;;;;;23.74;46.67;99506.16;5050691;28;20033;-75
2021/09/01 06:32:50;;;;;;;7.13;6.53;;;;;;;24.04;46.43;99537.81;5050761;28;20033;-75
2021/09/01 06:35:16;;;;;;;7.70;6.90;;;;;;;24.11;45.81;99537.56;5049430;28;20024;-75
2021/09/01 06:37:44;;;;;;;12.35;10.88;;;;;;;23.90;45.66;99496.25;5037412;28;20167;-76
2021/09/01 06:40:11;;;;;;;9.77;7.93;;;;;;;24.26;45.06;99537.59;5042731;28;20017;-74
2021/09/01 06:42:37;;;;;;;7.68;6.70;;;;;;;24.34;45.22;99542.47;5030411;28;21094;-76
2021/09/01 06:45:03;;;;;;;6.78;6.07;;;;;;;24.10;45.14;99495.47;5030815;28;20028;-73
2021/09/01 06:47:46;;;;;;;8.05;6.82;;;;;;;24.43;44.63;99536.56;5039098;28;20029;-73
2021/09/01 06:50:14;;;;;;;8.40;6.90;;;;;;;24.60;44.94;99546.03;5052070;28;20435;-76
2021/09/01 06:52:41;;;;;;;6.13;5.30;;;;;;;24.82;44.27;99548.47;5042073;28;20021;-76
2021/09/01 06:55:08;;;;;;;4.97;4.57;;;;;;;24.96;43.55;99536.03;5052053;28;20032;-75
2021/09/01 06:57:34;;;;;;;5.05;4.60;;;;;;;24.93;43.06;99522.25;5034674;28;20025;-76
2021/09/01 07:00:00;;;;;;;4.82;4.32;;;;;;;25.16;42.58;99529.78;5037021;28;20020;-76
2021/09/01 07:02:25;;;;;;;5.75;4.57;;;;;;;25.24;42.34;99528.44;5029714;28;20086;-76
2021/09/01 07:04:51;;;;;;;10.73;7.90;;;;;;;25.27;42.37;99536.00;5034310;28;20421;-76
2021/09/01 07:07:16;;;;;;;8.45;7.60;;;;;;;25.16;42.59;99507.38;5033670;28;20082;-75
2021/09/01 07:09:42;;;;;;;7.57;6.82;;;;;;;24.98;42.36;99495.25;5030140;28;20025;-76
2021/09/01 07:12:07;;;;;;;6.63;5.90;;;;;;;24.77;42.04;99464.75;5030560;28;20029;-75
2021/09/01 07:14:33;;;;;;;9.32;7.15;;;;;;;25.24;42.21;99541.94;5045332;28;20052;-76
2021/09/01 07:16:58;;;;;;;8.45;7.35;;;;;;;24.96;42.74;99511.72;5035196;28;20036;-75
2021/09/01 07:19:24;;;;;;;7.47;6.68;;;;;;;25.13;42.85;99513.31;5029574;28;20056;-75
2021/09/01 07:21:49;;;;;;;8.55;6.95;;;;;;;25.07;42.87;99492.81;5031984;28;20172;-76
2021/09/01 07:24:14;;;;;;;6.95;6.25;;;;;;;25.45;42.48;99540.00;5033617;28;20021;-75
2021/09/01 07:26:40;;;;;;;7.82;6.20;;;;;;;25.30;42.42;99511.94;5033689;28;20029;-75
2021/09/01 07:29:05;;;;;;;7.60;5.88;;;;;;;25.28;42.46;99508.72;5032878;28;20037;-76
2021/09/01 07:31:31;;;;;;;8.05;6.15;;;;;;;25.54;42.31;99544.56;5032689;28;20087;-76
2021/09/01 07:33:59;;;;;;;8.30;6.53;;;;;;;25.71;42.59;99559.69;5047801;28;20528;-76
2021/09/01 07:36:25;;;;;;;9.00;7.07;;;;;;;25.49;42.42;99514.84;5042620;28;20033;-75
2021/09/01 07:38:51;;;;;;;8.70;6.53;;;;;;;25.33;42.30;99511.41;5031988;28;20473;-75
2021/09/01 07:41:16;;;;;;;7.13;6.00;;;;;;;25.70;42.15;99547.25;5031964;28;20025;-75
2021/09/01 07:43:42;;;;;;;7.18;6.43;;;;;;;25.50;42.57;99500.25;5039616;28;20029;-74
2021/09/01 07:46:08;;;;;;;7.72;6.93;;;;;;;25.73;42.40;99516.94;5042620;28;20473;-76
2021/09/01 07:48:34;;;;;;;11.95;7.60;;;;;;;25.47;42.22;99468.38;5038127;28;20033;-74
2021/09/01 07:51:00;;;;;;;5.97;5.38;;;;;;;25.81;41.07;99506.34;5040434;28;20512;-74
2021/09/01 07:53:25;;;;;;;7.95;5.72;;;;;;;26.02;40.34;99530.59;5036458;28;20557;-75
2021/09/01 07:55:51;;;;;;;5.80;5.22;;;;;;;26.14;39.81;99553.53;5034987;28;20035;-76
2021/09/01 07:58:16;;;;;;;5.20;4.70;;;;;;;25.88;39.71;99487.91;5032222;28;20089;-76
2021/09/01 08:00:42;;;;;;;5.40;4.88;;;;;;;25.96;39.48;99506.25;5032851;28;20506;-76
2021/09/01 08:03:07;;;;;;;5.68;5.18;;;;;;;26.31;38.97;99536.09;5032149;28;20060;-76
2021/09/01 08:05:33;;;;;;;6.07;4.95;;;;;;;26.30;38.76;99540.69;5042823;28;20039;-77
2021/09/01 08:07:58;;;;;;;5.78;5.28;;;;;;;26.34;38.57;99525.56;5032603;28;20029;-75
2021/09/01 08:10:23;;;;;;;6.20;5.57;;;;;;;26.40;38.34;99534.44;5036440;28;20041;-75
2021/09/01 08:12:49;;;;;;;6.97;5.38;;;;;;;26.46;38.34;99504.34;5052304;28;20056;-75
2021/09/01 08:15:14;;;;;;;6.97;5.45;;;;;;;26.60;38.04;99508.00;5050534;28;20032;-73
2021/09/01 08:17:40;;;;;;;7.97;5.55;;;;;;;26.69;37.77;99500.06;5052789;28;20090;-74
2021/09/01 08:20:06;;;;;;;9.23;7.35;;;;;;;26.86;37.75;99510.50;5052034;28;20029;-77
2021/09/01 08:22:32;;;;;;;11.18;7.38;;;;;;;26.80;37.40;99484.56;5044462;28;20036;-75
2021/09/01 08:24:57;;;;;;;8.95;7.35;;;;;;;26.88;37.27;99497.47;5052000;28;20020;-76
2021/09/01 08:27:23;;;;;;;7.93;5.80;;;;;;;26.87;36.96;99475.00;5032666;28;20447;-76
2021/09/01 08:29:48;;;;;;;7.28;5.10;;;;;;;26.51;36.43;99393.28;5042921;28;20501;-75
2021/09/01 08:32:14;;;;;;;6.05;4.80;;;;;;;26.98;36.25;99454.06;5033138;28;20028;-75
2021/09/01 08:34:39;;;;;;;7.70;5.13;;;;;;;27.41;36.21;99503.69;5033177;28;20425;-76
2021/09/01 08:37:05;;;;;;;5.47;4.97;;;;;;;27.43;35.53;99489.84;5036346;28;20418;-76
2021/09/01 08:39:32;;;;;;;5.63;4.93;;;;;;;27.03;35.11;99445.88;5032208;28;20033;-76
2021/09/01 08:41:57;;;;;;;6.55;4.95;;;;;;;27.47;34.40;99494.41;5032112;28;20029;-74
2021/09/01 08:44:23;;;;;;;7.45;5.82;;;;;;;27.57;34.54;99489.97;5035635;28;20032;-76
2021/09/01 08:46:50;;;;;;;5.68;5.18;;;;;;;27.58;34.31;99505.97;5037800;28;20044;-75
2021/09/01 08:49:18;;;;;;;5.45;4.93;;;;;;;27.64;34.16;99496.69;5036087;28;20030;-76
2021/09/01 08:51:44;;;;;;;5.88;4.85;;;;;;;27.62;33.64;99473.66;5039223;28;20438;-75
2021/09/01 08:54:10;;;;;;;4.57;4.18;;;;;;;27.98;33.09;99487.53;5031795;28;20104;-76
2021/09/01 08:56:35;;;;;;;4.38;4.05;;;;;;;27.72;32.67;99430.91;5033389;28;20528;-74
2021/09/01 08:59:01;;;;;;;5.25;4.65;;;;;;;28.01;32.36;99448.94;5040480;28;20104;-75
2021/09/01 09:01:41;;;;;;;6.25;5.63;;;;;;;28.41;32.32;99475.50;5035048;28;20033;-74
2021/09/01 09:04:29;;;;;;;7.10;4.70;;;;;;;28.45;31.66;99440.41;5038746;28;20108;-74
2021/09/01 09:06:59;;;;;;;5.68;4.85;;;;;;;28.29;32.04;99387.47;5036990;28;20072;-74
2021/09/01 09:09:27;;;;;;;5.47;4.77;;;;;;;28.91;31.19;99453.19;5031711;28;20037;-75
2021/09/01 09:11:53;;;;;;;7.18;6.47;;;;;;;28.80;31.45;99401.69;5041391;28;20151;-75
2021/09/01 09:14:25;;;;;;;4.97;3.90;;;;;;;28.69;30.72;99361.44;5036314;28;20073;-72
2021/09/01 09:17:05;;;;;;;4.25;3.45;;;;;;;29.45;29.10;99446.97;5036959;28;20037;-76
2021/09/01 09:19:42;;;;;;;7.77;4.73;;;;;;;29.50;29.84;99449.56;5051909;28;20032;-76
2021/09/01 09:22:08;;;;;;;6.05;4.05;;;;;;;29.54;28.69;99450.56;5041924;28;20025;-76
2021/09/01 09:24:34;;;;;;;3.38;3.08;;;;;;;29.60;28.86;99432.22;5031672;28;20024;-81
2021/09/01 09:26:59;;;;;;;5.68;3.35;;;;;;;29.45;28.00;99389.03;5031023;28;20053;-80
2021/09/01 09:29:30;;;;;;;4.55;3.10;;;;;;;29.80;28.36;99448.13;5034869;28;20048;-81
2021/09/01 09:32:02;;;;;;;6.07;3.90;;;;;;;29.81;28.30;99411.63;5030859;28;20086;-79
2021/09/01 09:34:41;;;;;;;6.07;5.07;;;;;;;30.26;26.98;99436.97;5052091;28;20409;-80
2021/09/01 09:37:11;;;;;;;8.02;2.65;;;;;;;30.15;27.70;99397.47;5044696;28;20021;-82
2021/09/01 09:39:42;;;;;;;2.63;2.42;;;;;;;30.50;27.11;99425.75;5039907;28;20032;-81
2021/09/01 09:42:10;;;;;;;4.30;3.08;;;;;;;30.50;27.11;99390.31;5035906;28;20033;-81
2021/09/01 09:44:35;;;;;;;5.72;4.18;;;;;;;30.57;26.95;99370.81;5045644;28;20025;-80
2021/09/01 09:47:00;;;;;;;4.35;3.60;;;;;;;30.86;26.57;99379.28;5036072;28;20044;-81
2021/09/01 09:49:33;;;;;;;3.88;3.58;;;;;;;31.26;26.36;99409.25;5039037;28;20020;-81
2021/09/01 09:52:00;;;;;;;3.40;3.10;;;;;;;31.36;26.26;99406.22;5036872;28;20101;-80
2021/09/01 09:54:27;;;;;;;4.90;4.38;;;;;;;31.46;25.88;99392.28;5032765;28;20610;-79
2021/09/01 09:57:10;;;;;;;5.13;3.70;;;;;;;31.67;25.60;99395.19;5046794;28;20107;-79
2021/09/01 09:59:37;;;;;;;5.07;3.58;;;;;;;31.82;25.46;99402.09;5042531;28;20382;-79
2021/09/01 10:02:02;;;;;;;11.80;7.20;;;;;;;31.75;25.39;99390.88;5038321;28;20450;-79
2021/09/01 10:04:29;;;;;;;4.97;4.20;;;;;;;31.67;25.25;99378.78;5036127;28;20107;-81
2021/09/01 10:06:55;;;;;;;5.57;3.95;;;;;;;31.72;25.40;99377.88;5036845;28;20100;-80
2021/09/01 10:09:20;;;;;;;3.40;3.10;;;;;;;31.74;24.96;99376.41;5033464;28;20105;-79
2021/09/01 10:11:50;;;;;;;3.95;2.90;;;;;;;31.90;24.85;99374.78;5033928;28;20071;-80
2021/09/01 10:14:21;;;;;;;3.50;3.20;;;;;;;31.81;24.77;99330.31;5032641;28;20128;-80
2021/09/01 10:17:10;;;;;;;3.60;3.05;;;;;;;32.30;25.05;99384.72;5038383;28;20116;-82
2021/09/01 10:19:36;;;;;;;3.97;3.25;;;;;;;32.25;24.77;99330.25;5033752;28;20035;-81
2021/09/01 10:22:06;;;;;;;4.00;3.00;;;;;;;32.49;24.50;99363.28;5037863;28;20476;-80
2021/09/01 10:24:33;;;;;;;3.00;2.80;;;;;;;32.64;24.55;99353.72;5036702;28;20086;-74
2021/09/01 10:27:04;;;;;;;3.30;3.03;;;;;;;32.74;24.58;99361.59;5035634;28;20059;-75
2021/09/01 10:29:59;;;;;;;3.97;3.47;;;;;;;32.32;24.63;99366.09;5038834;28;20502;-72
2021/09/01 10:32:32;;;;;;;4.93;3.75;;;;;;;32.14;25.43;99349.72;5032716;28;20553;-73
2021/09/01 10:35:20;;;;;;;7.43;3.78;;;;;;;32.43;24.86;99354.47;5040684;28;20034;-73
2021/09/01 10:37:53;;;;;;;4.03;3.38;;;;;;;32.41;25.00;99315.72;5031400;28;20045;-75
2021/09/01 10:40:22;;;;;;;4.28;3.55;;;;;;;32.77;24.66;99342.63;5039412;28;20016;-75
2021/09/01 10:42:49;;;;;;;4.40;3.72;;;;;;;32.94;24.58;99338.19;5028967;28;20021;-76
2021/09/01 10:45:30;;;;;;;4.82;3.72;;;;;;;33.04;24.34;99335.06;5031005;28;20025;-76
2021/09/01 10:47:58;;;;;;;5.15;3.38;;;;;;;32.99;24.30;99335.25;5030271;28;20418;-74
2021/09/01 10:50:30;;;;;;;4.43;3.45;;;;;;;33.11;23.64;99329.88;5030435;28;20025;-72
2021/09/01 10:53:11;;;;;;;4.95;3.83;;;;;;;33.25;24.27;99330.41;5030072;28;20037;-74
2021/09/01 10:55:47;;;;;;;;;;;;;;;33.34;24.60;99327.63;5030864;28;20041;-76
2021/09/01 10:58:16;;;;;;;4.30;3.75;;;;;;;33.62;24.08;99322.44;5035634;28;19942;-76
2021/09/01 11:00:43;;;;;;;3.50;3.00;;;;;;;33.73;23.83;99293.47;5051372;28;20029;-73
2021/09/01 11:03:08;;;;;;;7.07;4.97;;;;;;;33.69;24.39;99278.88;5034042;28;20083;-75
2021/09/01 11:05:34;;;;;;;5.50;3.40;;;;;;;33.78;23.46;99317.91;5034951;28;20025;-74
2021/09/01 11:07:59;;;;;;;5.05;4.32;;;;;;;33.05;23.70;99290.97;5042079;28;20411;-75
2021/09/01 11:10:27;;;;;;;4.90;3.72;;;;;;;32.89;23.91;99272.75;5036597;28;20026;-74
2021/09/01 11:13:00;;;;;;;4.63;3.92;;;;;;;33.06;23.75;99294.50;5039109;28;20517;-75
2021/09/01 11:15:44;;;;;;;5.53;4.00;;;;;;;33.07;23.32;99312.50;5052552;28;20108;-74
2021/09/01 11:18:09;;;;;;;7.90;3.40;;;;;;;33.21;23.20;99315.78;5038867;28;20033;-75
2021/09/01 11:20:35;;;;;;;5.95;3.45;;;;;;;32.89;23.09;99229.00;5050322;28;20021;-76
2021/09/01 11:23:02;;;;;;;3.97;3.10;;;;;;;33.55;22.95;99313.97;5032722;28;20478;-75
2021/09/01 11:25:30;;;;;;;4.07;2.50;;;;;;;33.56;22.25;99301.88;5044407;28;20029;-78
2021/09/01 11:27:57;;;;;;;6.32;3.25;;;;;;;33.33;22.55;99254.88;5071575;28;20477;-79
2021/09/01 11:30:30;;;;;;;4.60;3.20;;;;;;;33.53;22.45;99275.16;5072300;28;20428;-80